sensor_id;sensor_type;location;lat;lon;timestamp;P1;durP1;ratioP1;P2;durP2;ratioP2
15256;SDS011;7731;50.720;6.912;2022-12-07T00:00:34;30.57;;;18.53;;
15256;SDS011;7731;50.720;6.912;2022-12-07T00:03:09;24.10;;;17.97;;
15256;SDS011;7731;50.720;6.912;2022-12-07T00:05:40;27.50;;;18.50;;
15256;SDS011;7731;50.720;6.912;2022-12-07T00:08:10;23.47;;;16.60;;
15256;SDS011;7731;50.720;6.912;2022-12-07T00:10:41;27.27;;;17.67;;
15256;SDS011;7731;50.720;6.912;2022-12-07T00:13:11;25.23;;;16.93;;
15256;SDS011;7731;50.720;6.912;2022-12-07T00:15:42;25.17;;;16.70;;
15256;SDS011;7731;50.720;6.912;2022-12-07T00:18:15;22.33;;;17.40;;
15256;SDS011;7731;50.720;6.912;2022-12-07T00:20:46;21.50;;;15.70;;
15256;SDS011;7731;50.720;6.912;2022-12-07T00:23:16;26.77;;;17.27;;
15256;SDS011;7731;50.720;6.912;2022-12-07T00:25:47;23.17;;;16.37;;
15256;SDS011;7731;50.720;6.912;2022-12-07T00:28:17;23.50;;;17.03;;
15256;SDS011;7731;50.720;6.912;2022-12-07T00:30:47;25.50;;;16.63;;
15256;SDS011;7731;50.720;6.912;2022-12-07T00:33:20;25.13;;;16.13;;
15256;SDS011;7731;50.720;6.912;2022-12-07T00:35:54;23.70;;;17.03;;
15256;SDS011;7731;50.720;6.912;2022-12-07T00:38:27;26.63;;;17.27;;
15256;SDS011;7731;50.720;6.912;2022-12-07T00:41:02;25.23;;;17.20;;
15256;SDS011;7731;50.720;6.912;2022-12-07T00:43:36;25.10;;;17.93;;
15256;SDS011;7731;50.720;6.912;2022-12-07T00:46:07;26.60;;;17.43;;
15256;SDS011;7731;50.720;6.912;2022-12-07T00:48:42;23.43;;;16.40;;
15256;SDS011;7731;50.720;6.912;2022-12-07T00:51:14;27.10;;;18.30;;
15256;SDS011;7731;50.720;6.912;2022-12-07T00:53:48;26.97;;;19.07;;
15256;SDS011;7731;50.720;6.912;2022-12-07T00:56:20;27.70;;;19.70;;
15256;SDS011;7731;50.720;6.912;2022-12-07T00:58:55;26.00;;;18.40;;
15256;SDS011;7731;50.720;6.912;2022-12-07T01:01:31;26.57;;;17.33;;
15256;SDS011;7731;50.720;6.912;2022-12-07T01:04:07;27.60;;;18.73;;
15256;SDS011;7731;50.720;6.912;2022-12-07T01:06:38;27.90;;;19.37;;
15256;SDS011;7731;50.720;6.912;2022-12-07T01:09:08;26.87;;;17.93;;
15256;SDS011;7731;50.720;6.912;2022-12-07T01:11:40;27.10;;;17.87;;
15256;SDS011;7731;50.720;6.912;2022-12-07T01:14:12;24.73;;;17.93;;
15256;SDS011;7731;50.720;6.912;2022-12-07T01:16:42;28.53;;;18.87;;
15256;SDS011;7731;50.720;6.912;2022-12-07T01:19:15;26.13;;;19.40;;
15256;SDS011;7731;50.720;6.912;2022-12-07T01:21:46;29.40;;;18.70;;
15256;SDS011;7731;50.720;6.912;2022-12-07T01:24:16;25.60;;;17.50;;
15256;SDS011;7731;50.720;6.912;2022-12-07T01:26:48;26.73;;;18.27;;
15256;SDS011;7731;50.720;6.912;2022-12-07T01:29:19;32.17;;;19.87;;
15256;SDS011;7731;50.720;6.912;2022-12-07T01:31:51;22.50;;;17.77;;
15256;SDS011;7731;50.720;6.912;2022-12-07T01:34:24;25.63;;;18.33;;
15256;SDS011;7731;50.720;6.912;2022-12-07T01:36:54;24.67;;;18.10;;
15256;SDS011;7731;50.720;6.912;2022-12-07T01:39:27;29.57;;;20.07;;
15256;SDS011;7731;50.720;6.912;2022-12-07T01:41:57;25.43;;;18.00;;
15256;SDS011;7731;50.720;6.912;2022-12-07T01:44:28;25.50;;;19.60;;
15256;SDS011;7731;50.720;6.912;2022-12-07T01:47:00;28.53;;;19.97;;
15256;SDS011;7731;50.720;6.912;2022-12-07T01:49:36;29.47;;;20.70;;
15256;SDS011;7731;50.720;6.912;2022-12-07T01:52:13;27.60;;;19.90;;
15256;SDS011;7731;50.720;6.912;2022-12-07T01:54:54;32.33;;;20.53;;
15256;SDS011;7731;50.720;6.912;2022-12-07T01:57:30;29.17;;;20.80;;
15256;SDS011;7731;50.720;6.912;2022-12-07T02:00:07;33.20;;;21.63;;
15256;SDS011;7731;50.720;6.912;2022-12-07T02:02:43;32.90;;;21.73;;
15256;SDS011;7731;50.720;6.912;2022-12-07T02:05:22;28.37;;;18.93;;
15256;SDS011;7731;50.720;6.912;2022-12-07T02:07:57;29.33;;;20.97;;
15256;SDS011;7731;50.720;6.912;2022-12-07T02:10:30;31.43;;;21.43;;
15256;SDS011;7731;50.720;6.912;2022-12-07T02:13:02;32.10;;;21.33;;
15256;SDS011;7731;50.720;6.912;2022-12-07T02:18:52;37.13;;;22.30;;
15256;SDS011;7731;50.720;6.912;2022-12-07T02:21:45;31.00;;;21.17;;
15256;SDS011;7731;50.720;6.912;2022-12-07T02:24:30;27.83;;;19.97;;
15256;SDS011;7731;50.720;6.912;2022-12-07T02:27:27;31.17;;;21.53;;
15256;SDS011;7731;50.720;6.912;2022-12-07T02:30:13;29.80;;;20.17;;
15256;SDS011;7731;50.720;6.912;2022-12-07T02:32:49;30.87;;;21.23;;
15256;SDS011;7731;50.720;6.912;2022-12-07T02:35:32;25.53;;;20.23;;
15256;SDS011;7731;50.720;6.912;2022-12-07T02:38:11;30.67;;;21.83;;
15256;SDS011;7731;50.720;6.912;2022-12-07T02:40:50;31.43;;;20.70;;
15256;SDS011;7731;50.720;6.912;2022-12-07T02:43:27;30.60;;;21.03;;
15256;SDS011;7731;50.720;6.912;2022-12-07T02:46:06;29.67;;;21.07;;
15256;SDS011;7731;50.720;6.912;2022-12-07T02:48:43;31.47;;;21.23;;
15256;SDS011;7731;50.720;6.912;2022-12-07T02:51:15;29.97;;;21.30;;
15256;SDS011;7731;50.720;6.912;2022-12-07T02:53:47;32.67;;;21.20;;
15256;SDS011;7731;50.720;6.912;2022-12-07T02:56:25;31.27;;;20.97;;
15256;SDS011;7731;50.720;6.912;2022-12-07T02:59:11;28.40;;;19.60;;
15256;SDS011;7731;50.720;6.912;2022-12-07T03:01:58;30.77;;;20.20;;
15256;SDS011;7731;50.720;6.912;2022-12-07T03:04:45;28.73;;;19.63;;
15256;SDS011;7731;50.720;6.912;2022-12-07T03:07:42;28.30;;;19.80;;
15256;SDS011;7731;50.720;6.912;2022-12-07T03:10:28;27.93;;;19.53;;
15256;SDS011;7731;50.720;6.912;2022-12-07T03:13:09;25.93;;;18.00;;
15256;SDS011;7731;50.720;6.912;2022-12-07T03:15:53;27.30;;;19.73;;
15256;SDS011;7731;50.720;6.912;2022-12-07T03:18:35;29.77;;;19.90;;
15256;SDS011;7731;50.720;6.912;2022-12-07T03:21:16;28.83;;;20.30;;
15256;SDS011;7731;50.720;6.912;2022-12-07T03:23:55;26.80;;;19.67;;
15256;SDS011;7731;50.720;6.912;2022-12-07T03:26:34;29.27;;;19.13;;
15256;SDS011;7731;50.720;6.912;2022-12-07T03:29:11;28.47;;;19.90;;
15256;SDS011;7731;50.720;6.912;2022-12-07T03:31:47;29.13;;;19.20;;
15256;SDS011;7731;50.720;6.912;2022-12-07T03:34:29;28.70;;;20.43;;
15256;SDS011;7731;50.720;6.912;2022-12-07T03:37:09;29.67;;;19.43;;
15256;SDS011;7731;50.720;6.912;2022-12-07T03:39:49;28.43;;;19.10;;
15256;SDS011;7731;50.720;6.912;2022-12-07T03:42:31;28.23;;;19.03;;
15256;SDS011;7731;50.720;6.912;2022-12-07T03:45:03;33.50;;;21.33;;
15256;SDS011;7731;50.720;6.912;2022-12-07T03:47:41;29.13;;;18.70;;
15256;SDS011;7731;50.720;6.912;2022-12-07T03:50:27;28.30;;;20.13;;
15256;SDS011;7731;50.720;6.912;2022-12-07T03:53:09;31.00;;;19.57;;
15256;SDS011;7731;50.720;6.912;2022-12-07T03:55:48;26.90;;;19.30;;
15256;SDS011;7731;50.720;6.912;2022-12-07T03:58:21;27.30;;;18.70;;
15256;SDS011;7731;50.720;6.912;2022-12-07T04:00:54;29.37;;;20.67;;
15256;SDS011;7731;50.720;6.912;2022-12-07T04:03:25;28.10;;;19.67;;
15256;SDS011;7731;50.720;6.912;2022-12-07T04:05:59;29.10;;;20.43;;
15256;SDS011;7731;50.720;6.912;2022-12-07T04:08:30;26.77;;;19.23;;
15256;SDS011;7731;50.720;6.912;2022-12-07T04:11:00;28.47;;;20.07;;
15256;SDS011;7731;50.720;6.912;2022-12-07T04:13:31;28.40;;;19.77;;
15256;SDS011;7731;50.720;6.912;2022-12-07T04:16:22;29.13;;;20.23;;
15256;SDS011;7731;50.720;6.912;2022-12-07T04:18:53;32.43;;;20.70;;
15256;SDS011;7731;50.720;6.912;2022-12-07T04:21:26;34.37;;;22.33;;
15256;SDS011;7731;50.720;6.912;2022-12-07T04:24:00;32.13;;;21.20;;
15256;SDS011;7731;50.720;6.912;2022-12-07T04:26:30;31.43;;;20.13;;
15256;SDS011;7731;50.720;6.912;2022-12-07T04:29:01;32.83;;;20.13;;
15256;SDS011;7731;50.720;6.912;2022-12-07T04:31:33;35.03;;;22.27;;
15256;SDS011;7731;50.720;6.912;2022-12-07T04:34:04;30.50;;;20.93;;
15256;SDS011;7731;50.720;6.912;2022-12-07T04:36:38;33.87;;;21.97;;
15256;SDS011;7731;50.720;6.912;2022-12-07T04:39:13;33.80;;;22.47;;
15256;SDS011;7731;50.720;6.912;2022-12-07T04:41:49;31.57;;;21.60;;
15256;SDS011;7731;50.720;6.912;2022-12-07T04:44:20;29.47;;;21.33;;
15256;SDS011;7731;50.720;6.912;2022-12-07T04:46:52;34.63;;;22.03;;
15256;SDS011;7731;50.720;6.912;2022-12-07T04:49:27;38.77;;;20.60;;
15256;SDS011;7731;50.720;6.912;2022-12-07T04:52:00;34.17;;;21.53;;
15256;SDS011;7731;50.720;6.912;2022-12-07T04:54:33;31.33;;;21.10;;
15256;SDS011;7731;50.720;6.912;2022-12-07T04:57:03;35.00;;;21.57;;
15256;SDS011;7731;50.720;6.912;2022-12-07T04:59:33;34.87;;;21.53;;
15256;SDS011;7731;50.720;6.912;2022-12-07T05:02:10;32.40;;;22.07;;
15256;SDS011;7731;50.720;6.912;2022-12-07T05:04:40;35.07;;;22.27;;
15256;SDS011;7731;50.720;6.912;2022-12-07T05:07:13;32.53;;;21.40;;
15256;SDS011;7731;50.720;6.912;2022-12-07T05:09:44;30.93;;;20.17;;
15256;SDS011;7731;50.720;6.912;2022-12-07T05:12:14;34.40;;;20.97;;
15256;SDS011;7731;50.720;6.912;2022-12-07T05:14:44;31.17;;;20.10;;
15256;SDS011;7731;50.720;6.912;2022-12-07T05:17:14;31.23;;;20.80;;
15256;SDS011;7731;50.720;6.912;2022-12-07T05:19:44;32.60;;;20.37;;
15256;SDS011;7731;50.720;6.912;2022-12-07T05:22:19;30.23;;;19.97;;
15256;SDS011;7731;50.720;6.912;2022-12-07T05:24:51;29.00;;;19.43;;
15256;SDS011;7731;50.720;6.912;2022-12-07T05:27:21;32.63;;;20.13;;
15256;SDS011;7731;50.720;6.912;2022-12-07T05:29:53;31.17;;;19.13;;
15256;SDS011;7731;50.720;6.912;2022-12-07T05:32:23;32.00;;;20.10;;
15256;SDS011;7731;50.720;6.912;2022-12-07T05:34:53;31.10;;;19.77;;
15256;SDS011;7731;50.720;6.912;2022-12-07T05:37:26;25.07;;;18.20;;
15256;SDS011;7731;50.720;6.912;2022-12-07T05:39:56;29.17;;;18.57;;
15256;SDS011;7731;50.720;6.912;2022-12-07T05:42:28;30.43;;;19.00;;
15256;SDS011;7731;50.720;6.912;2022-12-07T05:44:58;36.47;;;19.30;;
15256;SDS011;7731;50.720;6.912;2022-12-07T05:47:28;33.60;;;20.03;;
15256;SDS011;7731;50.720;6.912;2022-12-07T05:49:59;28.77;;;18.30;;
15256;SDS011;7731;50.720;6.912;2022-12-07T05:52:32;29.73;;;18.57;;
15256;SDS011;7731;50.720;6.912;2022-12-07T05:55:03;29.93;;;18.57;;
15256;SDS011;7731;50.720;6.912;2022-12-07T05:57:34;26.70;;;18.57;;
15256;SDS011;7731;50.720;6.912;2022-12-07T06:00:05;31.27;;;20.63;;
15256;SDS011;7731;50.720;6.912;2022-12-07T06:02:34;28.70;;;19.27;;
15256;SDS011;7731;50.720;6.912;2022-12-07T06:05:06;27.40;;;17.93;;
15256;SDS011;7731;50.720;6.912;2022-12-07T06:07:40;29.83;;;18.53;;
15256;SDS011;7731;50.720;6.912;2022-12-07T06:10:10;32.50;;;20.20;;
15256;SDS011;7731;50.720;6.912;2022-12-07T06:12:41;30.37;;;18.67;;
15256;SDS011;7731;50.720;6.912;2022-12-07T06:15:12;27.43;;;18.43;;
15256;SDS011;7731;50.720;6.912;2022-12-07T06:17:44;29.57;;;19.13;;
15256;SDS011;7731;50.720;6.912;2022-12-07T06:20:14;28.07;;;18.53;;
15256;SDS011;7731;50.720;6.912;2022-12-07T06:22:47;31.90;;;19.77;;
15256;SDS011;7731;50.720;6.912;2022-12-07T06:25:17;26.27;;;17.73;;
15256;SDS011;7731;50.720;6.912;2022-12-07T06:27:48;29.63;;;19.43;;
15256;SDS011;7731;50.720;6.912;2022-12-07T06:30:18;31.70;;;17.33;;
15256;SDS011;7731;50.720;6.912;2022-12-07T06:32:48;26.23;;;17.33;;
15256;SDS011;7731;50.720;6.912;2022-12-07T06:35:19;30.97;;;17.13;;
15256;SDS011;7731;50.720;6.912;2022-12-07T06:37:52;28.43;;;17.37;;
15256;SDS011;7731;50.720;6.912;2022-12-07T06:40:24;23.20;;;14.67;;
15256;SDS011;7731;50.720;6.912;2022-12-07T06:42:55;20.03;;;13.37;;
15256;SDS011;7731;50.720;6.912;2022-12-07T06:45:26;19.60;;;13.23;;
15256;SDS011;7731;50.720;6.912;2022-12-07T06:47:57;18.00;;;12.47;;
15256;SDS011;7731;50.720;6.912;2022-12-07T06:50:27;18.40;;;13.23;;
15256;SDS011;7731;50.720;6.912;2022-12-07T06:53:00;20.77;;;14.00;;
15256;SDS011;7731;50.720;6.912;2022-12-07T06:55:32;21.63;;;14.17;;
15256;SDS011;7731;50.720;6.912;2022-12-07T06:58:02;19.93;;;12.57;;
15256;SDS011;7731;50.720;6.912;2022-12-07T07:00:32;20.17;;;12.80;;
15256;SDS011;7731;50.720;6.912;2022-12-07T07:03:03;22.30;;;13.33;;
15256;SDS011;7731;50.720;6.912;2022-12-07T07:05:34;20.10;;;11.93;;
15256;SDS011;7731;50.720;6.912;2022-12-07T07:08:10;17.87;;;12.47;;
15256;SDS011;7731;50.720;6.912;2022-12-07T07:10:49;23.83;;;12.53;;
15256;SDS011;7731;50.720;6.912;2022-12-07T07:13:20;20.20;;;12.63;;
15256;SDS011;7731;50.720;6.912;2022-12-07T07:15:52;21.13;;;13.13;;
15256;SDS011;7731;50.720;6.912;2022-12-07T07:18:23;25.60;;;14.43;;
15256;SDS011;7731;50.720;6.912;2022-12-07T07:20:54;25.57;;;13.87;;
15256;SDS011;7731;50.720;6.912;2022-12-07T07:23:27;27.60;;;16.70;;
15256;SDS011;7731;50.720;6.912;2022-12-07T07:25:57;25.40;;;15.97;;
15256;SDS011;7731;50.720;6.912;2022-12-07T07:28:27;26.90;;;15.63;;
15256;SDS011;7731;50.720;6.912;2022-12-07T07:30:57;25.93;;;16.37;;
15256;SDS011;7731;50.720;6.912;2022-12-07T07:33:28;24.67;;;15.50;;
15256;SDS011;7731;50.720;6.912;2022-12-07T07:35:59;26.93;;;16.20;;
15256;SDS011;7731;50.720;6.912;2022-12-07T07:38:32;25.50;;;16.03;;
15256;SDS011;7731;50.720;6.912;2022-12-07T07:41:02;27.37;;;17.27;;
15256;SDS011;7731;50.720;6.912;2022-12-07T07:43:33;25.33;;;16.00;;
15256;SDS011;7731;50.720;6.912;2022-12-07T07:46:03;26.07;;;17.53;;
15256;SDS011;7731;50.720;6.912;2022-12-07T07:48:33;28.57;;;17.50;;
15256;SDS011;7731;50.720;6.912;2022-12-07T07:51:05;25.17;;;15.93;;
15256;SDS011;7731;50.720;6.912;2022-12-07T07:53:39;26.63;;;16.70;;
15256;SDS011;7731;50.720;6.912;2022-12-07T07:56:09;23.90;;;16.07;;
15256;SDS011;7731;50.720;6.912;2022-12-07T07:58:39;27.80;;;16.83;;
15256;SDS011;7731;50.720;6.912;2022-12-07T08:01:10;22.13;;;15.23;;
15256;SDS011;7731;50.720;6.912;2022-12-07T08:03:42;27.43;;;16.10;;
15256;SDS011;7731;50.720;6.912;2022-12-07T08:06:13;22.70;;;14.30;;
15256;SDS011;7731;50.720;6.912;2022-12-07T08:08:46;29.20;;;16.73;;
15256;SDS011;7731;50.720;6.912;2022-12-07T08:11:17;26.17;;;15.67;;
15256;SDS011;7731;50.720;6.912;2022-12-07T08:13:47;30.83;;;16.37;;
15256;SDS011;7731;50.720;6.912;2022-12-07T08:16:18;30.07;;;15.53;;
15256;SDS011;7731;50.720;6.912;2022-12-07T08:18:48;20.50;;;13.77;;
15256;SDS011;7731;50.720;6.912;2022-12-07T08:21:19;25.07;;;14.73;;
15256;SDS011;7731;50.720;6.912;2022-12-07T08:23:52;21.90;;;14.33;;
15256;SDS011;7731;50.720;6.912;2022-12-07T08:26:22;21.23;;;13.13;;
15256;SDS011;7731;50.720;6.912;2022-12-07T08:28:54;23.87;;;13.37;;
15256;SDS011;7731;50.720;6.912;2022-12-07T08:31:24;23.80;;;13.50;;
15256;SDS011;7731;50.720;6.912;2022-12-07T08:33:55;24.80;;;14.17;;
15256;SDS011;7731;50.720;6.912;2022-12-07T08:36:26;20.73;;;13.20;;
15256;SDS011;7731;50.720;6.912;2022-12-07T08:38:59;23.03;;;13.60;;
15256;SDS011;7731;50.720;6.912;2022-12-07T08:41:49;21.17;;;13.57;;
15256;SDS011;7731;50.720;6.912;2022-12-07T08:44:21;22.53;;;13.40;;
15256;SDS011;7731;50.720;6.912;2022-12-07T08:46:53;21.93;;;14.00;;
15256;SDS011;7731;50.720;6.912;2022-12-07T08:49:30;23.70;;;14.27;;
15256;SDS011;7731;50.720;6.912;2022-12-07T08:52:08;21.37;;;14.00;;
15256;SDS011;7731;50.720;6.912;2022-12-07T08:54:42;19.40;;;12.37;;
15256;SDS011;7731;50.720;6.912;2022-12-07T08:57:12;19.53;;;12.00;;
15256;SDS011;7731;50.720;6.912;2022-12-07T08:59:43;17.17;;;10.73;;
15256;SDS011;7731;50.720;6.912;2022-12-07T09:02:13;19.80;;;12.17;;
15256;SDS011;7731;50.720;6.912;2022-12-07T09:04:43;15.97;;;10.17;;
15256;SDS011;7731;50.720;6.912;2022-12-07T09:07:13;15.53;;;9.90;;
15256;SDS011;7731;50.720;6.912;2022-12-07T09:09:46;15.20;;;9.17;;
15256;SDS011;7731;50.720;6.912;2022-12-07T09:12:16;14.73;;;9.70;;
15256;SDS011;7731;50.720;6.912;2022-12-07T09:14:46;14.00;;;9.53;;
15256;SDS011;7731;50.720;6.912;2022-12-07T09:17:17;14.93;;;9.20;;
15256;SDS011;7731;50.720;6.912;2022-12-07T09:19:47;12.97;;;9.30;;
15256;SDS011;7731;50.720;6.912;2022-12-07T09:22:17;15.13;;;9.53;;
15256;SDS011;7731;50.720;6.912;2022-12-07T09:24:50;13.20;;;9.27;;
15256;SDS011;7731;50.720;6.912;2022-12-07T09:27:21;14.63;;;9.70;;
15256;SDS011;7731;50.720;6.912;2022-12-07T09:29:51;12.43;;;9.10;;
15256;SDS011;7731;50.720;6.912;2022-12-07T09:32:22;13.05;;;8.95;;
15256;SDS011;7731;50.720;6.912;2022-12-07T09:34:53;12.02;;;8.48;;
15256;SDS011;7731;50.720;6.912;2022-12-07T09:37:25;12.07;;;9.55;;
15256;SDS011;7731;50.720;6.912;2022-12-07T09:39:58;14.10;;;9.00;;
15256;SDS011;7731;50.720;6.912;2022-12-07T09:42:32;15.90;;;10.17;;
15256;SDS011;7731;50.720;6.912;2022-12-07T09:45:10;11.93;;;10.00;;
15256;SDS011;7731;50.720;6.912;2022-12-07T09:47:46;15.87;;;10.13;;
15256;SDS011;7731;50.720;6.912;2022-12-07T09:50:17;14.90;;;10.23;;
15256;SDS011;7731;50.720;6.912;2022-12-07T09:52:53;14.87;;;9.20;;
15256;SDS011;7731;50.720;6.912;2022-12-07T09:55:39;14.03;;;8.70;;
15256;SDS011;7731;50.720;6.912;2022-12-07T09:58:13;17.87;;;9.23;;
15256;SDS011;7731;50.720;6.912;2022-12-07T10:00:53;15.20;;;9.60;;
15256;SDS011;7731;50.720;6.912;2022-12-07T10:03:28;13.17;;;9.30;;
15256;SDS011;7731;50.720;6.912;2022-12-07T10:05:58;15.60;;;9.03;;
15256;SDS011;7731;50.720;6.912;2022-12-07T10:08:29;17.00;;;8.80;;
15256;SDS011;7731;50.720;6.912;2022-12-07T10:11:03;15.03;;;9.47;;
15256;SDS011;7731;50.720;6.912;2022-12-07T10:13:39;14.10;;;8.93;;
15256;SDS011;7731;50.720;6.912;2022-12-07T10:19:19;10.43;;;7.57;;
15256;SDS011;7731;50.720;6.912;2022-12-07T10:22:01;14.90;;;8.43;;
15256;SDS011;7731;50.720;6.912;2022-12-07T10:24:40;11.50;;;8.03;;
15256;SDS011;7731;50.720;6.912;2022-12-07T10:27:21;11.17;;;7.73;;
15256;SDS011;7731;50.720;6.912;2022-12-07T10:29:59;13.83;;;7.67;;
15256;SDS011;7731;50.720;6.912;2022-12-07T10:32:36;10.43;;;7.20;;
15256;SDS011;7731;50.720;6.912;2022-12-07T10:35:20;10.57;;;7.72;;
15256;SDS011;7731;50.720;6.912;2022-12-07T10:37:56;12.10;;;7.25;;
15256;SDS011;7731;50.720;6.912;2022-12-07T10:40:32;11.00;;;7.35;;
15256;SDS011;7731;50.720;6.912;2022-12-07T10:43:18;10.27;;;7.03;;
15256;SDS011;7731;50.720;6.912;2022-12-07T10:46:02;10.23;;;5.90;;
15256;SDS011;7731;50.720;6.912;2022-12-07T10:55:47;9.53;;;4.87;;
15256;SDS011;7731;50.720;6.912;2022-12-07T10:58:55;7.50;;;5.10;;
15256;SDS011;7731;50.720;6.912;2022-12-07T11:01:56;7.87;;;4.53;;
15256;SDS011;7731;50.720;6.912;2022-12-07T11:04:53;7.73;;;3.97;;
15256;SDS011;7731;50.720;6.912;2022-12-07T11:07:38;7.47;;;4.27;;
15256;SDS011;7731;50.720;6.912;2022-12-07T11:10:25;6.87;;;3.67;;
15256;SDS011;7731;50.720;6.912;2022-12-07T11:13:23;7.87;;;4.10;;
15256;SDS011;7731;50.720;6.912;2022-12-07T11:16:22;8.50;;;3.80;;
15256;SDS011;7731;50.720;6.912;2022-12-07T11:19:16;8.87;;;3.90;;
15256;SDS011;7731;50.720;6.912;2022-12-07T11:22:26;13.10;;;4.00;;
15256;SDS011;7731;50.720;6.912;2022-12-07T11:25:15;8.40;;;4.13;;
15256;SDS011;7731;50.720;6.912;2022-12-07T11:28:16;8.70;;;4.07;;
15256;SDS011;7731;50.720;6.912;2022-12-07T11:31:07;10.13;;;4.22;;
15256;SDS011;7731;50.720;6.912;2022-12-07T11:33:59;5.65;;;4.10;;
15256;SDS011;7731;50.720;6.912;2022-12-07T11:36:39;4.90;;;3.40;;
15256;SDS011;7731;50.720;6.912;2022-12-07T11:39:16;6.95;;;3.45;;
15256;SDS011;7731;50.720;6.912;2022-12-07T11:42:01;6.95;;;4.43;;
15256;SDS011;7731;50.720;6.912;2022-12-07T11:44:40;8.20;;;3.88;;
15256;SDS011;7731;50.720;6.912;2022-12-07T11:47:25;8.20;;;3.78;;
15256;SDS011;7731;50.720;6.912;2022-12-07T11:50:10;7.10;;;4.30;;
15256;SDS011;7731;50.720;6.912;2022-12-07T11:52:56;11.20;;;5.15;;
15256;SDS011;7731;50.720;6.912;2022-12-07T11:55:38;9.60;;;5.75;;
15256;SDS011;7731;50.720;6.912;2022-12-07T11:58:30;8.88;;;4.95;;
15256;SDS011;7731;50.720;6.912;2022-12-07T12:01:21;8.88;;;5.88;;
15256;SDS011;7731;50.720;6.912;2022-12-07T12:04:06;6.57;;;5.15;;
15256;SDS011;7731;50.720;6.912;2022-12-07T12:06:59;8.80;;;5.28;;
15256;SDS011;7731;50.720;6.912;2022-12-07T12:09:51;9.63;;;6.27;;
15256;SDS011;7731;50.720;6.912;2022-12-07T12:12:33;11.37;;;6.60;;
15256;SDS011;7731;50.720;6.912;2022-12-07T12:15:57;9.87;;;5.37;;
15256;SDS011;7731;50.720;6.912;2022-12-07T12:18:55;10.50;;;5.20;;
15256;SDS011;7731;50.720;6.912;2022-12-07T12:21:47;7.17;;;5.30;;
15256;SDS011;7731;50.720;6.912;2022-12-07T12:24:26;11.70;;;6.13;;
15256;SDS011;7731;50.720;6.912;2022-12-07T12:27:15;9.23;;;5.83;;
15256;SDS011;7731;50.720;6.912;2022-12-07T12:29:56;11.00;;;5.43;;
15256;SDS011;7731;50.720;6.912;2022-12-07T12:32:33;8.83;;;5.20;;
15256;SDS011;7731;50.720;6.912;2022-12-07T12:35:22;8.30;;;5.80;;
15256;SDS011;7731;50.720;6.912;2022-12-07T12:41:03;12.90;;;6.57;;
15256;SDS011;7731;50.720;6.912;2022-12-07T12:43:43;12.60;;;6.40;;
15256;SDS011;7731;50.720;6.912;2022-12-07T12:46:38;9.07;;;6.77;;
15256;SDS011;7731;50.720;6.912;2022-12-07T12:56:01;9.03;;;5.50;;
15256;SDS011;7731;50.720;6.912;2022-12-07T13:02:06;11.30;;;5.30;;
15256;SDS011;7731;50.720;6.912;2022-12-07T13:04:51;14.27;;;4.97;;
15256;SDS011;7731;50.720;6.912;2022-12-07T13:22:39;11.83;;;6.07;;
15256;SDS011;7731;50.720;6.912;2022-12-07T13:28:14;11.27;;;5.97;;
15256;SDS011;7731;50.720;6.912;2022-12-07T13:30:53;8.33;;;5.00;;
15256;SDS011;7731;50.720;6.912;2022-12-07T13:33:43;11.13;;;6.07;;
15256;SDS011;7731;50.720;6.912;2022-12-07T13:36:21;6.90;;;5.20;;
15256;SDS011;7731;50.720;6.912;2022-12-07T13:39:16;12.87;;;5.20;;
15256;SDS011;7731;50.720;6.912;2022-12-07T13:41:52;8.63;;;4.83;;
15256;SDS011;7731;50.720;6.912;2022-12-07T13:44:24;13.50;;;5.87;;
15256;SDS011;7731;50.720;6.912;2022-12-07T13:47:09;10.67;;;5.87;;
15256;SDS011;7731;50.720;6.912;2022-12-07T13:49:47;9.53;;;5.57;;
15256;SDS011;7731;50.720;6.912;2022-12-07T13:52:22;11.93;;;5.57;;
15256;SDS011;7731;50.720;6.912;2022-12-07T13:54:55;8.20;;;5.50;;
15256;SDS011;7731;50.720;6.912;2022-12-07T13:57:29;8.57;;;5.30;;
15256;SDS011;7731;50.720;6.912;2022-12-07T14:00:03;9.87;;;4.93;;
15256;SDS011;7731;50.720;6.912;2022-12-07T14:02:59;10.27;;;4.70;;
15256;SDS011;7731;50.720;6.912;2022-12-07T14:05:32;7.90;;;4.50;;
15256;SDS011;7731;50.720;6.912;2022-12-07T14:08:05;11.13;;;4.50;;
15256;SDS011;7731;50.720;6.912;2022-12-07T14:10:53;12.30;;;4.47;;
15256;SDS011;7731;50.720;6.912;2022-12-07T14:13:29;7.17;;;4.30;;
15256;SDS011;7731;50.720;6.912;2022-12-07T14:16:05;7.03;;;4.63;;
15256;SDS011;7731;50.720;6.912;2022-12-07T14:18:57;9.73;;;5.03;;
15256;SDS011;7731;50.720;6.912;2022-12-07T14:21:30;11.33;;;5.00;;
15256;SDS011;7731;50.720;6.912;2022-12-07T14:24:08;14.03;;;5.80;;
15256;SDS011;7731;50.720;6.912;2022-12-07T14:26:47;12.90;;;5.33;;
15256;SDS011;7731;50.720;6.912;2022-12-07T14:29:19;9.13;;;4.67;;
15256;SDS011;7731;50.720;6.912;2022-12-07T14:32:14;10.33;;;5.13;;
15256;SDS011;7731;50.720;6.912;2022-12-07T14:34:58;14.83;;;5.63;;
15256;SDS011;7731;50.720;6.912;2022-12-07T14:37:32;8.43;;;5.50;;
15256;SDS011;7731;50.720;6.912;2022-12-07T14:40:03;8.30;;;4.90;;
15256;SDS011;7731;50.720;6.912;2022-12-07T14:42:43;12.13;;;6.10;;
15256;SDS011;7731;50.720;6.912;2022-12-07T14:45:17;8.30;;;5.37;;
15256;SDS011;7731;50.720;6.912;2022-12-07T14:47:51;10.63;;;5.23;;
15256;SDS011;7731;50.720;6.912;2022-12-07T14:50:45;10.57;;;6.23;;
15256;SDS011;7731;50.720;6.912;2022-12-07T14:53:42;13.07;;;6.23;;
15256;SDS011;7731;50.720;6.912;2022-12-07T14:56:23;13.90;;;6.67;;
15256;SDS011;7731;50.720;6.912;2022-12-07T14:58:54;7.93;;;5.43;;
15256;SDS011;7731;50.720;6.912;2022-12-07T15:01:24;9.13;;;5.83;;
15256;SDS011;7731;50.720;6.912;2022-12-07T15:03:54;10.60;;;5.67;;
15256;SDS011;7731;50.720;6.912;2022-12-07T15:06:28;10.83;;;6.30;;
15256;SDS011;7731;50.720;6.912;2022-12-07T15:08:59;14.17;;;6.30;;
15256;SDS011;7731;50.720;6.912;2022-12-07T15:11:29;8.97;;;5.47;;
15256;SDS011;7731;50.720;6.912;2022-12-07T15:14:03;7.77;;;5.80;;
15256;SDS011;7731;50.720;6.912;2022-12-07T15:16:41;9.57;;;6.13;;
15256;SDS011;7731;50.720;6.912;2022-12-07T15:19:33;10.47;;;6.10;;
15256;SDS011;7731;50.720;6.912;2022-12-07T15:22:07;12.77;;;5.53;;
15256;SDS011;7731;50.720;6.912;2022-12-07T15:24:38;8.37;;;5.60;;
15256;SDS011;7731;50.720;6.912;2022-12-07T15:27:08;10.07;;;6.07;;
15256;SDS011;7731;50.720;6.912;2022-12-07T15:29:41;9.60;;;5.83;;
15256;SDS011;7731;50.720;6.912;2022-12-07T15:32:14;9.40;;;5.67;;
15256;SDS011;7731;50.720;6.912;2022-12-07T15:34:45;8.80;;;6.33;;
15256;SDS011;7731;50.720;6.912;2022-12-07T15:37:19;10.13;;;6.67;;
15256;SDS011;7731;50.720;6.912;2022-12-07T15:39:49;10.27;;;5.70;;
15256;SDS011;7731;50.720;6.912;2022-12-07T15:42:19;10.47;;;6.33;;
15256;SDS011;7731;50.720;6.912;2022-12-07T15:44:51;10.17;;;6.40;;
15256;SDS011;7731;50.720;6.912;2022-12-07T15:47:33;8.10;;;7.00;;
15256;SDS011;7731;50.720;6.912;2022-12-07T15:50:26;11.77;;;6.80;;
15256;SDS011;7731;50.720;6.912;2022-12-07T15:53:00;18.93;;;7.33;;
15256;SDS011;7731;50.720;6.912;2022-12-07T15:55:32;18.57;;;7.53;;
15256;SDS011;7731;50.720;6.912;2022-12-07T15:58:02;14.03;;;7.57;;
15256;SDS011;7731;50.720;6.912;2022-12-07T16:00:33;11.70;;;7.63;;
15256;SDS011;7731;50.720;6.912;2022-12-07T16:03:04;11.43;;;7.30;;
15256;SDS011;7731;50.720;6.912;2022-12-07T16:05:35;13.97;;;8.07;;
15256;SDS011;7731;50.720;6.912;2022-12-07T16:08:08;11.23;;;7.70;;
15256;SDS011;7731;50.720;6.912;2022-12-07T16:10:39;11.60;;;7.10;;
15256;SDS011;7731;50.720;6.912;2022-12-07T16:13:11;8.30;;;6.60;;
15256;SDS011;7731;50.720;6.912;2022-12-07T16:15:42;10.57;;;6.93;;
15256;SDS011;7731;50.720;6.912;2022-12-07T16:18:13;12.73;;;7.37;;